createdAt,value
2023-10-07T00:01:00.384Z,78.02
2023-10-07T00:03:39.821Z,77.59
2023-10-07T00:06:11.453Z,77.59
2023-10-07T00:08:38.506Z,77.61
2023-10-07T00:11:12.425Z,78.01
2023-10-07T00:13:42.910Z,78.64
2023-10-07T00:16:12.425Z,78.70
2023-10-07T00:18:39.490Z,78.72
2023-10-07T00:21:07.692Z,78.95
2023-10-07T00:23:36.287Z,78.96
2023-10-07T00:26:08.410Z,78.74
2023-10-07T00:28:36.757Z,78.62
2023-10-07T00:31:07.532Z,78.33
2023-10-07T00:33:47.061Z,78.33
2023-10-07T00:36:21.590Z,78.79
2023-10-07T00:38:48.680Z,79.07
2023-10-07T00:41:19.418Z,79.24
2023-10-07T00:43:46.983Z,79.15
2023-10-07T00:46:28.888Z,78.90
2023-10-07T00:48:58.643Z,79.07
2023-10-07T00:51:34.238Z,78.80
2023-10-07T00:54:17.274Z,79.07
2023-10-07T00:56:53.686Z,79.06
2023-10-07T00:59:20.777Z,78.72
2023-10-07T01:01:51.215Z,78.77
2023-10-07T01:04:19.275Z,78.70
2023-10-07T01:06:46.466Z,78.48
2023-10-07T01:09:15.392Z,78.64
2023-10-07T01:11:46.588Z,78.48
2023-10-07T01:14:13.455Z,78.52
2023-10-07T01:16:44.291Z,78.68
2023-10-07T01:19:12.899Z,78.64
2023-10-07T01:21:56.141Z,78.83
2023-10-07T01:24:44.151Z,78.85
2023-10-07T01:27:40.602Z,79.09
2023-10-07T01:30:16.304Z,78.98
2023-10-07T01:32:54.347Z,78.24
2023-10-07T01:35:34.753Z,78.18
2023-10-07T01:38:08.362Z,78.46
2023-10-07T01:40:51.457Z,78.38
2023-10-07T01:43:19.619Z,78.91
2023-10-07T01:45:49.295Z,79.70
2023-10-07T01:48:18.229Z,79.91
2023-10-07T01:50:47.364Z,80.04
2023-10-07T01:53:16.775Z,80.15
2023-10-07T01:55:43.842Z,80.39
2023-10-07T01:58:15.052Z,80.63
2023-10-07T02:00:45.493Z,80.77
2023-10-07T02:03:22.821Z,81.12
2023-10-07T02:05:50.474Z,81.47
2023-10-07T02:08:21.938Z,81.74
2023-10-07T02:10:50.675Z,81.77
2023-10-07T02:13:22.585Z,82.00
2023-10-07T02:15:50.511Z,82.17
2023-10-07T02:18:17.884Z,82.51
2023-10-07T02:20:44.935Z,82.67
2023-10-07T02:23:16.454Z,82.82
2023-10-07T02:25:43.481Z,82.95
2023-10-07T02:28:10.761Z,83.17
2023-10-07T02:30:39.995Z,83.32
2023-10-07T02:33:14.463Z,83.55
2023-10-07T02:35:47.030Z,83.68
2023-10-07T02:38:14.031Z,83.28
2023-10-07T02:40:50.701Z,83.11
2023-10-07T02:43:17.829Z,82.97
2023-10-07T02:45:44.950Z,82.69
2023-10-07T02:48:12.086Z,82.82
2023-10-07T02:50:52.673Z,82.81
2023-10-07T02:53:19.824Z,82.57
2023-10-07T02:56:09.586Z,82.66
2023-10-07T02:58:41.985Z,82.69
2023-10-07T03:01:13.075Z,82.45
2023-10-07T03:03:41.781Z,82.21
2023-10-07T03:06:09.173Z,82.40
2023-10-07T03:09:02.856Z,82.34
2023-10-07T03:11:49.825Z,82.36
2023-10-07T03:14:25.953Z,82.34
2023-10-07T03:17:00.571Z,82.27
2023-10-07T03:19:34.223Z,82.48
2023-10-07T03:22:10.440Z,82.60
2023-10-07T03:24:55.554Z,83.06
2023-10-07T03:27:26.086Z,83.45
2023-10-07T03:30:01.339Z,83.38
2023-10-07T03:32:34.517Z,83.59
2023-10-07T03:35:02.034Z,83.60
2023-10-07T03:37:29.357Z,83.58
2023-10-07T03:40:05.061Z,83.51
2023-10-07T03:42:33.734Z,83.16
2023-10-07T03:45:01.461Z,83.32
2023-10-07T03:47:33.155Z,83.68
2023-10-07T03:50:00.267Z,83.43
2023-10-07T03:52:28.735Z,83.58
2023-10-07T03:54:57.863Z,83.52
2023-10-07T03:57:25.621Z,83.07
2023-10-07T03:59:54.107Z,82.84
2023-10-07T04:02:35.707Z,83.12
2023-10-07T04:05:13.576Z,82.81
2023-10-07T04:07:43.805Z,83.02
2023-10-07T04:10:21.481Z,83.49
2023-10-07T04:12:50.108Z,83.60
2023-10-07T04:15:28.719Z,83.54
2023-10-07T04:17:55.695Z,83.36
2023-10-07T04:20:42.680Z,83.48
2023-10-07T04:23:10.171Z,83.48
2023-10-07T04:25:43.863Z,83.69
2023-10-07T04:28:14.301Z,83.79
2023-10-07T04:30:41.508Z,83.99
2023-10-07T04:33:10.966Z,84.15
2023-10-07T04:35:39.636Z,84.32
2023-10-07T04:38:24.617Z,84.35
2023-10-07T04:41:09.885Z,84.24
2023-10-07T04:43:37.195Z,83.79
2023-10-07T04:46:29.618Z,83.57
2023-10-07T04:48:58.759Z,83.60
2023-10-07T04:51:32.212Z,83.80
2023-10-07T04:53:59.793Z,83.68
2023-10-07T04:56:27.795Z,83.83
2023-10-07T04:58:55.327Z,84.27
2023-10-07T05:01:34.993Z,84.35
2023-10-07T05:04:09.407Z,84.57
2023-10-07T05:06:38.060Z,84.49
2023-10-07T05:09:10.190Z,84.65
2023-10-07T05:11:38.804Z,84.24
2023-10-07T05:14:08.630Z,84.12
2023-10-07T05:16:36.022Z,84.11
2023-10-07T05:19:04.120Z,84.51
2023-10-07T05:21:32.576Z,84.53
2023-10-07T05:24:03.497Z,84.88
2023-10-07T05:26:31.958Z,84.91
2023-10-07T05:29:02.454Z,84.83
2023-10-07T05:31:33.989Z,84.82
2023-10-07T05:34:01.124Z,85.04
2023-10-07T05:36:31.511Z,85.34
2023-10-07T05:39:01.177Z,85.38
2023-10-07T05:41:29.403Z,85.84
2023-10-07T05:43:56.382Z,85.95
2023-10-07T05:46:23.664Z,85.82
2023-10-07T05:48:51.997Z,85.73
2023-10-07T05:51:18.879Z,85.81
2023-10-07T05:53:49.426Z,86.10
2023-10-07T05:56:16.444Z,86.30
2023-10-07T05:58:47.505Z,86.40
2023-10-07T06:01:15.295Z,86.54
2023-10-07T06:03:44.007Z,86.69
2023-10-07T06:06:11.557Z,86.72
2023-10-07T06:08:38.762Z,86.80
2023-10-07T06:11:06.100Z,86.81
2023-10-07T06:13:34.103Z,86.74
2023-10-07T06:16:05.122Z,86.64
2023-10-07T06:18:34.647Z,86.90
2023-10-07T06:21:26.665Z,86.87
2023-10-07T06:23:54.317Z,86.81
2023-10-07T06:26:21.628Z,86.65
2023-10-07T06:28:51.903Z,86.38
2023-10-07T06:31:23.738Z,86.15
2023-10-07T06:34:09.806Z,85.99
2023-10-07T06:36:38.771Z,85.60
2023-10-07T06:39:08.483Z,85.25
2023-10-07T06:41:37.383Z,84.82
2023-10-07T06:44:05.028Z,84.49
2023-10-07T06:46:45.622Z,84.17
2023-10-07T06:49:16.921Z,83.32
2023-10-07T06:51:44.571Z,82.85
2023-10-07T06:54:11.913Z,82.64
2023-10-07T06:56:40.269Z,82.36
2023-10-07T06:59:07.677Z,82.24
2023-10-07T07:01:40.940Z,81.98
2023-10-07T07:04:19.808Z,81.40
2023-10-07T07:06:58.204Z,81.40
2023-10-07T07:09:45.016Z,81.14
2023-10-07T07:12:17.021Z,80.70
2023-10-07T07:14:51.545Z,80.19
2023-10-07T07:17:51.870Z,79.96
2023-10-07T07:20:32.979Z,79.59
2023-10-07T07:23:04.716Z,79.21
2023-10-07T07:25:37.040Z,79.00
2023-10-07T07:28:05.086Z,79.04
2023-10-07T07:30:32.906Z,78.99
2023-10-07T07:33:06.947Z,78.78
2023-10-07T07:35:44.106Z,78.24
2023-10-07T07:38:41.138Z,78.05
2023-10-07T07:41:12.515Z,77.72
2023-10-07T07:43:40.836Z,77.43
2023-10-07T07:46:17.892Z,77.13
2023-10-07T07:48:45.477Z,76.80
2023-10-07T07:51:17.111Z,76.27
2023-10-07T07:53:44.445Z,76.08
2023-10-07T07:56:13.737Z,75.68
2023-10-07T07:58:50.242Z,75.38
2023-10-07T08:01:29.208Z,74.92
2023-10-07T08:04:10.726Z,74.13
2023-10-07T08:06:38.392Z,73.89
2023-10-07T08:09:06.041Z,73.21
2023-10-07T08:11:35.765Z,73.15
2023-10-07T08:14:12.051Z,72.92
2023-10-07T08:16:51.146Z,72.44
2023-10-07T08:19:21.394Z,72.18
2023-10-07T08:21:52.277Z,71.72
2023-10-07T08:24:20.608Z,71.18
2023-10-07T08:26:59.799Z,70.75
2023-10-07T08:29:33.044Z,70.53
2023-10-07T08:32:00.958Z,70.25
2023-10-07T08:34:36.042Z,68.04
2023-10-07T08:37:08.774Z,66.77
2023-10-07T08:39:45.362Z,66.67
2023-10-07T08:42:18.189Z,66.53
2023-10-07T08:44:51.945Z,66.04
2023-10-07T08:47:23.264Z,65.61
2023-10-07T08:49:53.081Z,65.71
2023-10-07T08:52:20.822Z,65.59
2023-10-07T08:54:48.495Z,64.02
2023-10-07T08:57:17.046Z,63.89
2023-10-07T08:59:50.382Z,63.35
2023-10-07T09:02:27.601Z,63.13
2023-10-07T09:04:56.016Z,63.53
2023-10-07T09:07:23.555Z,61.80
2023-10-07T09:09:50.745Z,61.73
2023-10-07T09:12:31.662Z,61.65
2023-10-07T09:15:00.987Z,61.29
2023-10-07T09:17:28.178Z,60.73
2023-10-07T09:19:59.477Z,60.34
2023-10-07T09:22:36.087Z,60.67
2023-10-07T09:25:18.798Z,59.78
2023-10-07T09:27:55.412Z,59.39
2023-10-07T09:30:41.086Z,58.23
2023-10-07T09:33:16.012Z,57.52
2023-10-07T09:35:44.375Z,57.20
2023-10-07T09:38:33.656Z,57.50
2023-10-07T09:41:20.722Z,57.38
2023-10-07T09:43:48.326Z,56.58
2023-10-07T09:46:31.226Z,56.72
2023-10-07T09:49:04.236Z,56.92
2023-10-07T09:51:38.030Z,56.19
2023-10-07T09:54:08.269Z,56.42
2023-10-07T09:56:45.557Z,55.65
2023-10-07T09:59:51.659Z,54.06
2023-10-07T10:02:33.776Z,54.95
2023-10-07T10:05:06.014Z,54.15
2023-10-07T10:07:40.177Z,54.26
2023-10-07T10:10:16.089Z,53.29
2023-10-07T10:12:52.279Z,53.73
2023-10-07T10:15:21.942Z,53.15
2023-10-07T10:17:49.762Z,52.03
2023-10-07T10:20:19.374Z,52.18
2023-10-07T10:22:50.162Z,52.16
2023-10-07T10:25:37.003Z,51.64
2023-10-07T10:28:04.326Z,51.43
2023-10-07T10:30:31.307Z,51.60
2023-10-07T10:33:01.684Z,51.44
2023-10-07T10:35:33.866Z,51.31
2023-10-07T10:38:01.165Z,51.42
2023-10-07T10:40:32.388Z,51.13
2023-10-07T10:43:00.634Z,50.58
2023-10-07T10:45:30.519Z,50.96
2023-10-07T10:48:01.727Z,49.13
2023-10-07T10:50:33.056Z,48.78
2023-10-07T10:53:01.007Z,49.00
2023-10-07T10:55:34.773Z,48.30
2023-10-07T10:58:01.625Z,46.57
2023-10-07T11:00:29.295Z,46.99
2023-10-07T11:02:56.712Z,46.80
2023-10-07T11:05:26.681Z,47.18
2023-10-07T11:07:54.986Z,47.02
2023-10-07T11:10:23.760Z,47.20
2023-10-07T11:12:53.757Z,47.48
2023-10-07T11:15:27.687Z,46.83
2023-10-07T11:17:54.753Z,46.80
2023-10-07T11:20:24.849Z,45.71
2023-10-07T11:22:53.749Z,45.44
2023-10-07T11:25:23.635Z,44.45
2023-10-07T11:27:50.688Z,43.77
2023-10-07T11:30:17.608Z,44.35
2023-10-07T11:32:44.992Z,43.80
2023-10-07T11:35:26.000Z,44.61
2023-10-07T11:37:59.955Z,45.05
2023-10-07T11:40:28.257Z,43.71
2023-10-07T11:42:55.645Z,44.38
2023-10-07T11:45:23.666Z,45.08
2023-10-07T11:47:51.046Z,44.72
2023-10-07T11:50:18.472Z,43.79
2023-10-07T11:52:46.943Z,43.68
2023-10-07T11:55:17.738Z,43.92
2023-10-07T11:57:44.994Z,44.21
2023-10-07T12:00:23.642Z,43.91
2023-10-07T12:02:51.299Z,44.45
2023-10-07T12:05:19.316Z,45.07
2023-10-07T12:07:48.494Z,45.25
2023-10-07T12:10:18.369Z,45.73
2023-10-07T12:12:45.686Z,45.92
2023-10-07T12:15:16.589Z,46.24
2023-10-07T12:17:44.825Z,46.35
2023-10-07T12:20:15.880Z,46.84
2023-10-07T12:22:43.767Z,46.81
2023-10-07T12:25:16.713Z,46.87
2023-10-07T12:27:44.480Z,47.26
2023-10-07T12:30:12.318Z,47.36
2023-10-07T12:32:42.459Z,47.64
2023-10-07T12:35:14.231Z,48.17
2023-10-07T12:37:42.370Z,48.17
2023-10-07T12:40:11.771Z,48.45
2023-10-07T12:42:40.361Z,48.68
2023-10-07T12:45:08.813Z,48.95
2023-10-07T12:47:37.765Z,49.20
2023-10-07T12:50:23.187Z,49.53
2023-10-07T12:53:11.382Z,49.19
2023-10-07T12:55:39.824Z,49.32
2023-10-07T12:58:09.544Z,49.35
2023-10-07T13:00:36.964Z,49.28
2023-10-07T13:03:07.891Z,49.18
2023-10-07T13:05:42.844Z,49.50
2023-10-07T13:08:13.625Z,49.65
2023-10-07T13:10:41.191Z,49.80
2023-10-07T13:13:08.645Z,49.71
2023-10-07T13:15:36.017Z,49.41
2023-10-07T13:18:03.677Z,49.18
2023-10-07T13:20:31.113Z,48.81
2023-10-07T13:22:58.949Z,48.73
2023-10-07T13:25:26.980Z,49.02
2023-10-07T13:27:58.637Z,49.54
2023-10-07T13:30:25.759Z,48.37
2023-10-07T13:32:54.951Z,48.64
2023-10-07T13:35:22.721Z,48.36
2023-10-07T13:37:50.788Z,48.13
2023-10-07T13:40:18.635Z,48.31
2023-10-07T13:42:47.865Z,47.16
2023-10-07T13:45:15.313Z,46.82
2023-10-07T13:47:45.561Z,46.91
2023-10-07T13:50:16.241Z,46.63
2023-10-07T13:53:06.719Z,46.79
2023-10-07T13:55:39.517Z,47.06
2023-10-07T13:58:06.477Z,47.16
2023-10-07T14:00:37.654Z,47.25
2023-10-07T14:03:20.202Z,47.28
2023-10-07T14:06:11.449Z,47.06
2023-10-07T14:08:43.916Z,47.05
2023-10-07T14:11:10.874Z,46.96
2023-10-07T14:13:40.695Z,46.95
2023-10-07T14:16:19.340Z,47.29
2023-10-07T14:18:47.184Z,46.00
2023-10-07T14:21:14.517Z,47.03
2023-10-07T14:23:41.776Z,46.80
2023-10-07T14:26:16.729Z,46.84
2023-10-07T14:28:47.177Z,47.11
2023-10-07T14:31:16.935Z,47.33
2023-10-07T14:33:46.063Z,47.50
2023-10-07T14:36:13.056Z,47.34
2023-10-07T14:38:41.807Z,47.49
2023-10-07T14:41:09.060Z,47.74
2023-10-07T14:43:36.532Z,47.73
2023-10-07T14:46:11.833Z,47.24
2023-10-07T14:48:40.358Z,47.19
2023-10-07T14:51:08.605Z,47.47
2023-10-07T14:53:36.330Z,47.64
2023-10-07T14:56:17.803Z,47.76
2023-10-07T14:58:48.185Z,47.88
2023-10-07T15:01:15.476Z,47.96
2023-10-07T15:03:43.401Z,48.32
2023-10-07T15:06:11.539Z,48.80
2023-10-07T15:08:39.844Z,49.08
2023-10-07T15:11:08.509Z,49.99
2023-10-07T15:13:39.298Z,50.25
2023-10-07T15:16:14.223Z,50.24
2023-10-07T15:18:45.126Z,50.75
2023-10-07T15:21:12.502Z,51.34
2023-10-07T15:23:40.442Z,51.29
2023-10-07T15:26:11.913Z,51.49
2023-10-07T15:28:39.506Z,51.84
2023-10-07T15:31:07.288Z,52.36
2023-10-07T15:33:34.667Z,53.30
2023-10-07T15:36:01.851Z,53.90
2023-10-07T15:38:29.253Z,54.44
2023-10-07T15:40:57.575Z,54.85
2023-10-07T15:43:24.742Z,55.47
2023-10-07T15:45:51.930Z,56.01
2023-10-07T15:48:21.065Z,56.41
2023-10-07T15:50:49.072Z,56.79
2023-10-07T15:53:16.288Z,57.22
2023-10-07T15:55:43.716Z,57.58
2023-10-07T15:58:11.625Z,58.00
2023-10-07T16:00:39.125Z,58.20
2023-10-07T16:03:12.031Z,58.75
2023-10-07T16:05:39.560Z,59.23
2023-10-07T16:08:06.736Z,59.53
2023-10-07T16:10:40.103Z,59.98
2023-10-07T16:13:07.091Z,60.34
2023-10-07T16:15:34.554Z,60.44
2023-10-07T16:18:02.035Z,60.89
2023-10-07T16:20:29.262Z,60.87
2023-10-07T16:22:59.996Z,60.92
2023-10-07T16:25:27.284Z,61.07
2023-10-07T16:27:55.042Z,61.38
2023-10-07T16:30:22.089Z,62.05
2023-10-07T16:32:49.205Z,62.51
2023-10-07T16:35:16.613Z,62.79
2023-10-07T16:37:43.607Z,62.89
2023-10-07T16:40:16.689Z,62.85
2023-10-07T16:42:44.436Z,63.02
2023-10-07T16:45:13.042Z,63.21
2023-10-07T16:47:40.229Z,63.12
2023-10-07T16:50:15.356Z,63.22
2023-10-07T16:52:43.472Z,63.39
2023-10-07T16:55:10.535Z,63.71
2023-10-07T16:57:38.467Z,64.01
2023-10-07T17:00:06.142Z,64.12
2023-10-07T17:02:33.648Z,64.42
2023-10-07T17:05:00.931Z,64.63
2023-10-07T17:07:28.120Z,64.68
2023-10-07T17:09:56.335Z,64.79
2023-10-07T17:12:24.631Z,64.72
2023-10-07T17:14:51.927Z,64.80
2023-10-07T17:17:20.192Z,64.74
2023-10-07T17:19:48.027Z,64.92
2023-10-07T17:22:15.309Z,64.94
2023-10-07T17:24:42.850Z,64.95
2023-10-07T17:27:09.918Z,65.20
2023-10-07T17:29:36.958Z,65.49
2023-10-07T17:32:07.403Z,65.74
2023-10-07T17:34:34.674Z,65.98
2023-10-07T17:37:01.799Z,66.23
2023-10-07T17:39:29.775Z,66.22
2023-10-07T17:41:57.411Z,66.47
2023-10-07T17:44:24.557Z,66.85
2023-10-07T17:46:51.797Z,66.98
2023-10-07T17:49:19.527Z,67.03
2023-10-07T17:51:46.791Z,67.25
2023-10-07T17:54:19.081Z,67.41
2023-10-07T17:56:46.065Z,67.44
2023-10-07T17:59:13.397Z,67.51
2023-10-07T18:01:40.878Z,67.56
2023-10-07T18:04:07.933Z,67.73
2023-10-07T18:06:35.243Z,67.72
2023-10-07T18:09:02.301Z,67.66
2023-10-07T18:11:29.468Z,67.77
2023-10-07T18:13:56.741Z,67.85
2023-10-07T18:16:23.869Z,67.98
2023-10-07T18:18:52.889Z,67.87
2023-10-07T18:21:20.432Z,67.97
2023-10-07T18:23:50.249Z,68.22
2023-10-07T18:26:17.475Z,68.64
2023-10-07T18:28:45.066Z,68.93
2023-10-07T18:31:14.514Z,69.08
2023-10-07T18:33:50.061Z,69.04
2023-10-07T18:36:16.955Z,69.12
2023-10-07T18:38:43.982Z,69.16
2023-10-07T18:41:11.133Z,69.31
2023-10-07T18:43:38.218Z,69.36
2023-10-07T18:46:06.371Z,69.53
2023-10-07T18:48:33.563Z,69.59
2023-10-07T18:51:07.471Z,69.83
2023-10-07T18:53:34.722Z,69.93
2023-10-07T18:56:02.814Z,69.86
2023-10-07T18:58:30.078Z,69.99
2023-10-07T19:01:00.234Z,70.15
2023-10-07T19:03:27.741Z,70.43
2023-10-07T19:05:55.838Z,70.46
2023-10-07T19:08:23.144Z,70.59
2023-10-07T19:10:50.402Z,70.71
2023-10-07T19:13:17.942Z,70.66
2023-10-07T19:15:45.803Z,70.92
2023-10-07T19:18:14.762Z,71.06
2023-10-07T19:20:52.862Z,71.08
2023-10-07T19:23:22.146Z,71.42
2023-10-07T19:26:02.876Z,71.39
2023-10-07T19:28:32.048Z,71.47
2023-10-07T19:30:59.191Z,71.58
2023-10-07T19:33:26.400Z,71.68
2023-10-07T19:35:58.104Z,71.80
2023-10-07T19:38:25.691Z,71.87
2023-10-07T19:40:53.260Z,71.86
2023-10-07T19:43:20.517Z,71.88
2023-10-07T19:45:47.895Z,71.85
2023-10-07T19:48:15.798Z,72.07
2023-10-07T19:50:44.258Z,72.26
2023-10-07T19:53:11.402Z,72.45
2023-10-07T19:55:41.631Z,72.59
2023-10-07T19:58:08.532Z,72.80
2023-10-07T20:00:38.577Z,72.78
2023-10-07T20:03:05.836Z,72.92
2023-10-07T20:05:35.826Z,72.95
2023-10-07T20:08:03.520Z,72.98
2023-10-07T20:10:32.328Z,72.91
2023-10-07T20:13:02.062Z,72.96
2023-10-07T20:15:29.251Z,72.95
2023-10-07T20:17:56.536Z,73.00
2023-10-07T20:20:24.240Z,73.03
2023-10-07T20:22:52.624Z,73.03
2023-10-07T20:25:21.829Z,73.00
2023-10-07T20:27:50.450Z,72.85
2023-10-07T20:30:20.123Z,72.76
2023-10-07T20:32:48.074Z,72.59
2023-10-07T20:35:19.757Z,72.34
2023-10-07T20:37:46.809Z,72.08
2023-10-07T20:40:15.191Z,71.89
2023-10-07T20:42:42.263Z,71.69
2023-10-07T20:45:09.811Z,71.51
2023-10-07T20:47:36.709Z,71.34
2023-10-07T20:50:07.139Z,71.19
2023-10-07T20:52:34.248Z,71.07
2023-10-07T20:55:01.815Z,71.07
2023-10-07T20:57:28.905Z,70.91
2023-10-07T20:59:56.234Z,70.82
2023-10-07T21:02:23.161Z,70.86
2023-10-07T21:04:50.428Z,70.76
2023-10-07T21:07:17.382Z,70.77
2023-10-07T21:09:44.438Z,70.90
2023-10-07T21:12:11.384Z,71.09
2023-10-07T21:14:38.604Z,71.12
2023-10-07T21:17:05.523Z,71.27
2023-10-07T21:19:32.653Z,71.47
2023-10-07T21:22:00.208Z,71.57
2023-10-07T21:24:27.364Z,71.74
2023-10-07T21:26:56.674Z,72.14
2023-10-07T21:29:23.801Z,72.26
2023-10-07T21:31:50.838Z,72.36
2023-10-07T21:34:17.756Z,72.49
2023-10-07T21:36:44.729Z,72.57
2023-10-07T21:39:12.555Z,72.63
2023-10-07T21:41:39.762Z,72.81
2023-10-07T21:44:06.841Z,72.96
2023-10-07T21:46:36.020Z,73.14
2023-10-07T21:49:03.122Z,73.20
2023-10-07T21:51:30.168Z,73.51
2023-10-07T21:53:57.635Z,73.47
2023-10-07T21:56:24.590Z,73.79
2023-10-07T21:58:52.717Z,74.08
2023-10-07T22:01:19.922Z,74.17
2023-10-07T22:03:48.480Z,74.13
2023-10-07T22:06:15.533Z,74.16
2023-10-07T22:08:42.808Z,74.34
2023-10-07T22:11:10.749Z,74.28
2023-10-07T22:13:38.192Z,74.43
2023-10-07T22:16:08.145Z,74.53
2023-10-07T22:18:35.432Z,74.39
2023-10-07T22:21:03.970Z,74.48
2023-10-07T22:23:31.050Z,74.67
2023-10-07T22:25:58.465Z,74.74
2023-10-07T22:28:27.184Z,74.92
2023-10-07T22:30:54.214Z,74.86
2023-10-07T22:33:21.460Z,74.87
2023-10-07T22:35:49.239Z,74.61
2023-10-07T22:38:20.383Z,74.50
2023-10-07T22:40:48.351Z,74.43
2023-10-07T22:43:18.718Z,74.52
2023-10-07T22:45:49.278Z,74.66
2023-10-07T22:48:20.493Z,74.71
2023-10-07T22:51:01.416Z,74.91
2023-10-07T22:53:30.093Z,75.11
2023-10-07T22:56:00.353Z,75.15
2023-10-07T22:58:28.452Z,75.21
2023-10-07T23:00:56.313Z,75.25
2023-10-07T23:03:35.226Z,75.32
2023-10-07T23:06:18.486Z,75.37
2023-10-07T23:08:58.439Z,75.61
2023-10-07T23:11:25.437Z,76.03
2023-10-07T23:13:56.789Z,76.60
2023-10-07T23:16:28.073Z,76.60
2023-10-07T23:18:59.277Z,76.64
2023-10-07T23:21:45.532Z,76.51
2023-10-07T23:24:32.675Z,76.82
2023-10-07T23:27:04.611Z,76.74
2023-10-07T23:29:34.623Z,76.75
2023-10-07T23:32:14.033Z,77.14
2023-10-07T23:34:43.830Z,77.78
2023-10-07T23:37:17.122Z,77.73
2023-10-07T23:39:59.617Z,77.86
2023-10-07T23:42:27.787Z,77.84
2023-10-07T23:44:55.461Z,77.69
2023-10-07T23:47:25.847Z,77.95
2023-10-07T23:49:58.098Z,77.95
2023-10-07T23:52:25.649Z,78.09
2023-10-07T23:55:08.655Z,78.31
2023-10-07T23:57:39.152Z,78.06
